sensor_id;sensor_type;location;lat;lon;timestamp;temperature;humidity
14095;DHT22;18096;48.142;16.290;2024-01-30T09:14:37;2.90;99.90
14095;DHT22;18096;48.142;16.290;2024-01-30T09:17:03;2.90;99.90
14095;DHT22;18096;48.142;16.290;2024-01-30T09:36:32;3.80;99.90
14095;DHT22;18096;48.142;16.290;2024-01-30T09:41:24;4.00;99.90
14095;DHT22;18096;48.142;16.290;2024-01-30T09:43:50;4.50;99.90
14095;DHT22;18096;48.142;16.290;2024-01-30T09:46:16;5.60;99.90
14095;DHT22;18096;48.142;16.290;2024-01-30T09:48:42;6.80;99.90
14095;DHT22;18096;48.142;16.290;2024-01-30T09:51:09;8.10;99.90
14095;DHT22;18096;48.142;16.290;2024-01-30T09:53:35;9.50;99.90
14095;DHT22;18096;48.142;16.290;2024-01-30T09:56:01;8.70;99.90
14095;DHT22;18096;48.142;16.290;2024-01-30T09:58:27;11.50;99.90
14095;DHT22;18096;48.142;16.290;2024-01-30T10:00:53;9.40;99.90
14095;DHT22;18096;48.142;16.290;2024-01-30T10:03:19;12.80;99.90
14095;DHT22;18096;48.142;16.290;2024-01-30T10:05:49;13.20;97.20
14095;DHT22;18096;48.142;16.290;2024-01-30T10:08:16;13.70;94.50
14095;DHT22;18096;48.142;16.290;2024-01-30T10:10:42;14.00;92.20
14095;DHT22;18096;48.142;16.290;2024-01-30T10:13:10;14.10;91.00
14095;DHT22;18096;48.142;16.290;2024-01-30T10:15:36;14.20;89.90
14095;DHT22;18096;48.142;16.290;2024-01-30T10:18:08;14.30;85.00
14095;DHT22;18096;48.142;16.290;2024-01-30T10:20:35;14.50;84.10
14095;DHT22;18096;48.142;16.290;2024-01-30T10:23:01;14.80;81.60
14095;DHT22;18096;48.142;16.290;2024-01-30T10:25:26;15.10;79.20
14095;DHT22;18096;48.142;16.290;2024-01-30T10:27:53;15.10;77.50
14095;DHT22;18096;48.142;16.290;2024-01-30T10:30:20;15.00;76.50
14095;DHT22;18096;48.142;16.290;2024-01-30T10:42:33;15.50;72.20
14095;DHT22;18096;48.142;16.290;2024-01-30T10:45:08;15.30;71.80
14095;DHT22;18096;48.142;16.290;2024-01-30T10:47:34;15.20;72.60
14095;DHT22;18096;48.142;16.290;2024-01-30T10:50:00;15.40;72.00
14095;DHT22;18096;48.142;16.290;2024-01-30T10:52:27;15.50;69.90
14095;DHT22;18096;48.142;16.290;2024-01-30T10:54:55;15.40;70.70
14095;DHT22;18096;48.142;16.290;2024-01-30T10:59:50;15.40;69.70
14095;DHT22;18096;48.142;16.290;2024-01-30T11:24:42;14.00;69.70
14095;DHT22;18096;48.142;16.290;2024-01-30T11:27:08;14.10;70.40
14095;DHT22;18096;48.142;16.290;2024-01-30T11:29:33;13.80;71.30
14095;DHT22;18096;48.142;16.290;2024-01-30T11:32:00;13.20;71.80
14095;DHT22;18096;48.142;16.290;2024-01-30T11:34:25;13.50;73.50
14095;DHT22;18096;48.142;16.290;2024-01-30T11:36:52;12.80;72.20
14095;DHT22;18096;48.142;16.290;2024-01-30T11:39:23;12.40;74.00
14095;DHT22;18096;48.142;16.290;2024-01-30T11:41:50;12.10;75.70
14095;DHT22;18096;48.142;16.290;2024-01-30T11:44:16;11.60;76.60
14095;DHT22;18096;48.142;16.290;2024-01-30T11:46:42;11.10;77.60
14095;DHT22;18096;48.142;16.290;2024-01-30T11:49:07;10.50;79.20
14095;DHT22;18096;48.142;16.290;2024-01-30T11:51:33;9.90;81.50
14095;DHT22;18096;48.142;16.290;2024-01-30T11:58:52;8.70;86.80
14095;DHT22;18096;48.142;16.290;2024-01-30T12:01:17;8.40;88.60
14095;DHT22;18096;48.142;16.290;2024-01-30T12:03:49;8.10;90.50
14095;DHT22;18096;48.142;16.290;2024-01-30T12:06:15;7.90;91.30
14095;DHT22;18096;48.142;16.290;2024-01-30T12:08:41;7.60;92.50
14095;DHT22;18096;48.142;16.290;2024-01-30T12:11:06;7.50;94.40
14095;DHT22;18096;48.142;16.290;2024-01-30T12:13:32;7.40;96.20
14095;DHT22;18096;48.142;16.290;2024-01-30T12:15:58;7.30;98.70
14095;DHT22;18096;48.142;16.290;2024-01-30T12:18:23;7.20;99.90
14095;DHT22;18096;48.142;16.290;2024-01-30T12:21:01;7.10;99.90
14095;DHT22;18096;48.142;16.290;2024-01-30T12:25:53;6.90;99.90
14095;DHT22;18096;48.142;16.290;2024-01-30T12:28:19;6.90;99.90
14095;DHT22;18096;48.142;16.290;2024-01-30T12:33:18;6.80;99.90
14095;DHT22;18096;48.142;16.290;2024-01-30T12:38:09;6.80;99.90
14095;DHT22;18096;48.142;16.290;2024-01-30T12:40:35;6.80;99.90
14095;DHT22;18096;48.142;16.290;2024-01-30T12:43:00;6.70;99.90
14095;DHT22;18096;48.142;16.290;2024-01-30T12:45:26;6.60;99.90
14095;DHT22;18096;48.142;16.290;2024-01-30T12:47:52;6.70;99.90
14095;DHT22;18096;48.142;16.290;2024-01-30T12:52:44;6.70;99.90
14095;DHT22;18096;48.142;16.290;2024-01-30T12:57:36;6.70;99.90
14095;DHT22;18096;48.142;16.290;2024-01-30T13:00:01;6.70;99.90
14095;DHT22;18096;48.142;16.290;2024-01-30T13:02:27;6.70;99.90
14095;DHT22;18096;48.142;16.290;2024-01-30T13:05:00;6.70;99.90
14095;DHT22;18096;48.142;16.290;2024-01-30T13:07:25;6.70;99.90
14095;DHT22;18096;48.142;16.290;2024-01-30T13:09:51;6.70;99.90
14095;DHT22;18096;48.142;16.290;2024-01-30T13:14:42;6.70;99.90
14095;DHT22;18096;48.142;16.290;2024-01-30T13:22:00;6.80;99.90
14095;DHT22;18096;48.142;16.290;2024-01-30T13:24:25;6.70;99.90
14095;DHT22;18096;48.142;16.290;2024-01-30T13:26:52;6.70;99.90
14095;DHT22;18096;48.142;16.290;2024-01-30T13:29:18;6.70;99.90
14095;DHT22;18096;48.142;16.290;2024-01-30T13:31:43;6.70;99.90
14095;DHT22;18096;48.142;16.290;2024-01-30T13:34:11;6.70;99.90
14095;DHT22;18096;48.142;16.290;2024-01-30T13:36:38;6.70;99.90
14095;DHT22;18096;48.142;16.290;2024-01-30T13:41:33;6.70;99.90
14095;DHT22;18096;48.142;16.290;2024-01-30T13:46:24;6.70;99.90
14095;DHT22;18096;48.142;16.290;2024-01-30T13:51:16;6.70;99.90
14095;DHT22;18096;48.142;16.290;2024-01-30T13:58:34;6.80;99.90
14095;DHT22;18096;48.142;16.290;2024-01-30T14:05:54;6.70;99.90
14095;DHT22;18096;48.142;16.290;2024-01-30T14:08:19;6.70;99.90
14095;DHT22;18096;48.142;16.290;2024-01-30T14:10:47;6.70;99.90
14095;DHT22;18096;48.142;16.290;2024-01-30T14:13:12;6.60;99.90
14095;DHT22;18096;48.142;16.290;2024-01-30T14:18:05;6.60;99.90
14095;DHT22;18096;48.142;16.290;2024-01-30T14:20:30;6.60;99.90
14095;DHT22;18096;48.142;16.290;2024-01-30T14:25:22;6.60;99.90
14095;DHT22;18096;48.142;16.290;2024-01-30T14:27:48;6.60;99.90
14095;DHT22;18096;48.142;16.290;2024-01-30T14:30:13;6.60;99.90
14095;DHT22;18096;48.142;16.290;2024-01-30T14:35:06;6.70;99.90
14095;DHT22;18096;48.142;16.290;2024-01-30T14:37:31;6.60;99.90
14095;DHT22;18096;48.142;16.290;2024-01-30T14:39:57;6.50;99.90
14095;DHT22;18096;48.142;16.290;2024-01-30T14:44:48;6.50;99.90
14095;DHT22;18096;48.142;16.290;2024-01-30T14:47:14;6.50;99.90
14095;DHT22;18096;48.142;16.290;2024-01-30T14:49:40;6.40;99.90
14095;DHT22;18096;48.142;16.290;2024-01-30T14:52:05;6.50;99.90
14095;DHT22;18096;48.142;16.290;2024-01-30T14:54:31;6.40;99.90
14095;DHT22;18096;48.142;16.290;2024-01-30T14:56:56;6.50;99.90
14095;DHT22;18096;48.142;16.290;2024-01-30T15:04:14;6.40;99.90
14095;DHT22;18096;48.142;16.290;2024-01-30T15:06:39;6.30;99.90
14095;DHT22;18096;48.142;16.290;2024-01-30T15:09:13;6.30;99.90
14095;DHT22;18096;48.142;16.290;2024-01-30T15:11:40;6.30;99.90
14095;DHT22;18096;48.142;16.290;2024-01-30T15:14:06;6.30;99.90
14095;DHT22;18096;48.142;16.290;2024-01-30T15:18:57;6.20;99.90
14095;DHT22;18096;48.142;16.290;2024-01-30T15:21:23;6.10;99.90
14095;DHT22;18096;48.142;16.290;2024-01-30T15:23:49;6.00;99.90
14095;DHT22;18096;48.142;16.290;2024-01-30T15:26:14;6.00;99.90
14095;DHT22;18096;48.142;16.290;2024-01-30T15:28:40;6.00;99.90
14095;DHT22;18096;48.142;16.290;2024-01-30T15:31:06;5.90;99.90
14095;DHT22;18096;48.142;16.290;2024-01-30T15:33:32;5.90;99.90
14095;DHT22;18096;48.142;16.290;2024-01-30T15:40:49;5.80;99.90
14095;DHT22;18096;48.142;16.290;2024-01-30T15:43:15;5.70;99.90
14095;DHT22;18096;48.142;16.290;2024-01-30T15:55:24;5.40;99.90
14095;DHT22;18096;48.142;16.290;2024-01-30T15:57:50;5.30;99.90
14095;DHT22;18096;48.142;16.290;2024-01-30T16:05:07;5.20;99.90
14095;DHT22;18096;48.142;16.290;2024-01-30T16:10:02;5.10;99.90
14095;DHT22;18096;48.142;16.290;2024-01-30T16:22:11;5.00;99.90
14095;DHT22;18096;48.142;16.290;2024-01-30T16:27:03;4.90;99.90
14095;DHT22;18096;48.142;16.290;2024-01-30T16:31:54;4.80;99.90
14095;DHT22;18096;48.142;16.290;2024-01-30T16:34:20;4.80;99.90
14095;DHT22;18096;48.142;16.290;2024-01-30T16:36:46;4.70;99.90
14095;DHT22;18096;48.142;16.290;2024-01-30T16:39:12;4.70;99.90
14095;DHT22;18096;48.142;16.290;2024-01-30T16:41:38;4.60;99.90
14095;DHT22;18096;48.142;16.290;2024-01-30T17:01:05;4.30;99.90
14095;DHT22;18096;48.142;16.290;2024-01-30T17:08:24;4.20;99.90
14095;DHT22;18096;48.142;16.290;2024-01-30T17:27:51;3.90;99.90
14095;DHT22;18096;48.142;16.290;2024-01-30T17:35:09;4.00;99.90
14095;DHT22;18096;48.142;16.290;2024-01-30T17:37:35;3.90;99.90
14095;DHT22;18096;48.142;16.290;2024-01-30T17:54:39;3.60;99.90
14095;DHT22;18096;48.142;16.290;2024-01-30T17:57:04;3.60;99.90
14095;DHT22;18096;48.142;16.290;2024-01-30T18:21:23;3.00;99.90
14095;DHT22;18096;48.142;16.290;2024-01-30T18:23:49;2.90;99.90
14095;DHT22;18096;48.142;16.290;2024-01-30T18:28:41;2.90;99.90
14095;DHT22;18096;48.142;16.290;2024-01-30T18:31:23;2.80;99.90
14095;DHT22;18096;48.142;16.290;2024-01-30T18:48:27;2.40;99.90
14095;DHT22;18096;48.142;16.290;2024-01-30T19:00:40;2.30;99.90
14095;DHT22;18096;48.142;16.290;2024-01-30T19:03:07;2.20;99.90
14095;DHT22;18096;48.142;16.290;2024-01-30T19:05:33;2.20;99.90
14095;DHT22;18096;48.142;16.290;2024-01-30T19:10:25;2.00;99.90
14095;DHT22;18096;48.142;16.290;2024-01-30T19:12:54;2.00;99.90
14095;DHT22;18096;48.142;16.290;2024-01-30T19:15:20;1.90;99.90
14095;DHT22;18096;48.142;16.290;2024-01-30T19:17:46;1.90;99.90
14095;DHT22;18096;48.142;16.290;2024-01-30T19:20:12;1.80;99.90
14095;DHT22;18096;48.142;16.290;2024-01-30T19:22:39;0.50;99.90
14095;DHT22;18096;48.142;16.290;2024-01-30T19:25:05;1.70;99.90
14095;DHT22;18096;48.142;16.290;2024-01-30T19:27:31;1.70;99.90
14095;DHT22;18096;48.142;16.290;2024-01-30T19:29:57;1.60;99.90
14095;DHT22;18096;48.142;16.290;2024-01-30T19:32:23;1.60;99.90
14095;DHT22;18096;48.142;16.290;2024-01-30T19:34:50;-1.20;99.90
14095;DHT22;18096;48.142;16.290;2024-01-30T19:37:18;1.60;99.90
14095;DHT22;18096;48.142;16.290;2024-01-30T19:39:47;1.50;99.90
14095;DHT22;18096;48.142;16.290;2024-01-30T19:42:14;1.40;99.90
14095;DHT22;18096;48.142;16.290;2024-01-30T19:44:40;1.70;99.90
14095;DHT22;18096;48.142;16.290;2024-01-30T19:47:06;1.40;99.90
14095;DHT22;18096;48.142;16.290;2024-01-30T19:49:35;1.30;99.90
14095;DHT22;18096;48.142;16.290;2024-01-30T19:52:01;1.30;99.90
14095;DHT22;18096;48.142;16.290;2024-01-30T19:54:29;1.30;99.90
14095;DHT22;18096;48.142;16.290;2024-01-30T19:56:56;-0.60;99.90
14095;DHT22;18096;48.142;16.290;2024-01-30T19:59:22;-1.60;99.90
14095;DHT22;18096;48.142;16.290;2024-01-30T20:01:47;1.10;99.90
14095;DHT22;18096;48.142;16.290;2024-01-30T20:04:13;1.10;99.90
14095;DHT22;18096;48.142;16.290;2024-01-30T20:06:40;-0.30;99.90
14095;DHT22;18096;48.142;16.290;2024-01-30T20:09:05;1.10;99.90
14095;DHT22;18096;48.142;16.290;2024-01-30T20:11:33;-0.20;99.90
14095;DHT22;18096;48.142;16.290;2024-01-30T20:13:59;1.00;99.90
14095;DHT22;18096;48.142;16.290;2024-01-30T20:16:24;1.00;99.90
14095;DHT22;18096;48.142;16.290;2024-01-30T20:18:50;1.00;99.90
14095;DHT22;18096;48.142;16.290;2024-01-30T20:21:16;-2.20;99.90
14095;DHT22;18096;48.142;16.290;2024-01-30T20:23:42;0.90;99.90
14095;DHT22;18096;48.142;16.290;2024-01-30T20:26:07;2.20;99.90
14095;DHT22;18096;48.142;16.290;2024-01-30T20:28:33;0.90;99.90
14095;DHT22;18096;48.142;16.290;2024-01-30T20:30:59;2.20;99.90
14095;DHT22;18096;48.142;16.290;2024-01-30T20:33:25;0.80;99.90
14095;DHT22;18096;48.142;16.290;2024-01-30T20:35:51;0.80;99.90
14095;DHT22;18096;48.142;16.290;2024-01-30T20:38:16;0.80;99.90
14095;DHT22;18096;48.142;16.290;2024-01-30T20:40:42;0.80;99.90
14095;DHT22;18096;48.142;16.290;2024-01-30T20:43:09;-1.90;99.90
14095;DHT22;18096;48.142;16.290;2024-01-30T20:45:35;0.90;99.90
14095;DHT22;18096;48.142;16.290;2024-01-30T20:48:01;0.80;99.90
14095;DHT22;18096;48.142;16.290;2024-01-30T20:50:28;-2.10;99.90
14095;DHT22;18096;48.142;16.290;2024-01-30T20:52:54;0.80;99.90
14095;DHT22;18096;48.142;16.290;2024-01-30T20:55:20;0.80;99.90
14095;DHT22;18096;48.142;16.290;2024-01-30T20:57:47;0.60;99.90
14095;DHT22;18096;48.142;16.290;2024-01-30T21:00:13;0.70;99.90
14095;DHT22;18096;48.142;16.290;2024-01-30T21:02:42;0.80;99.90
14095;DHT22;18096;48.142;16.290;2024-01-30T21:05:07;0.70;99.90
14095;DHT22;18096;48.142;16.290;2024-01-30T21:07:34;0.60;99.90
14095;DHT22;18096;48.142;16.290;2024-01-30T21:09:59;0.70;99.90
14095;DHT22;18096;48.142;16.290;2024-01-30T21:12:25;0.60;99.90
14095;DHT22;18096;48.142;16.290;2024-01-30T21:14:51;0.60;99.90
14095;DHT22;18096;48.142;16.290;2024-01-30T21:17:16;0.70;99.90
14095;DHT22;18096;48.142;16.290;2024-01-30T21:19:42;0.60;99.90
14095;DHT22;18096;48.142;16.290;2024-01-30T21:22:07;4.00;99.90
14095;DHT22;18096;48.142;16.290;2024-01-30T21:24:33;-1.00;99.90
14095;DHT22;18096;48.142;16.290;2024-01-30T21:26:59;0.60;99.90
14095;DHT22;18096;48.142;16.290;2024-01-30T21:29:24;3.70;99.90
14095;DHT22;18096;48.142;16.290;2024-01-30T21:31:50;0.40;99.90
14095;DHT22;18096;48.142;16.290;2024-01-30T21:34:17;0.50;99.90
14095;DHT22;18096;48.142;16.290;2024-01-30T21:36:42;0.50;99.90
14095;DHT22;18096;48.142;16.290;2024-01-30T21:39:08;3.30;99.90
14095;DHT22;18096;48.142;16.290;2024-01-30T21:41:33;0.50;99.90
14095;DHT22;18096;48.142;16.290;2024-01-30T21:43:59;0.50;99.90
14095;DHT22;18096;48.142;16.290;2024-01-30T21:46:26;1.40;99.90
14095;DHT22;18096;48.142;16.290;2024-01-30T21:48:52;0.40;99.90
14095;DHT22;18096;48.142;16.290;2024-01-30T21:51:18;0.40;99.90
14095;DHT22;18096;48.142;16.290;2024-01-30T21:53:44;3.80;99.90
14095;DHT22;18096;48.142;16.290;2024-01-30T21:56:09;-0.60;99.90
14095;DHT22;18096;48.142;16.290;2024-01-30T21:58:35;3.40;99.90
14095;DHT22;18096;48.142;16.290;2024-01-30T22:01:00;2.70;99.90
14095;DHT22;18096;48.142;16.290;2024-01-30T22:03:26;0.40;99.90
14095;DHT22;18096;48.142;16.290;2024-01-30T22:05:51;-1.40;99.90
14095;DHT22;18096;48.142;16.290;2024-01-30T22:08:17;1.40;99.90
14095;DHT22;18096;48.142;16.290;2024-01-30T22:10:42;0.40;99.90
14095;DHT22;18096;48.142;16.290;2024-01-30T22:13:08;1.20;99.90
14095;DHT22;18096;48.142;16.290;2024-01-30T22:15:34;0.30;99.90
14095;DHT22;18096;48.142;16.290;2024-01-30T22:18:05;0.30;99.90
14095;DHT22;18096;48.142;16.290;2024-01-30T22:20:30;-2.50;99.90
14095;DHT22;18096;48.142;16.290;2024-01-30T22:22:56;0.30;99.90
14095;DHT22;18096;48.142;16.290;2024-01-30T22:25:22;0.40;99.90
14095;DHT22;18096;48.142;16.290;2024-01-30T22:27:47;0.40;99.90
14095;DHT22;18096;48.142;16.290;2024-01-30T22:30:13;0.30;99.90
14095;DHT22;18096;48.142;16.290;2024-01-30T22:32:39;0.30;99.90
14095;DHT22;18096;48.142;16.290;2024-01-30T22:35:04;0.30;99.90
14095;DHT22;18096;48.142;16.290;2024-01-30T22:37:38;-2.70;99.90
14095;DHT22;18096;48.142;16.290;2024-01-30T22:40:04;0.90;99.90
14095;DHT22;18096;48.142;16.290;2024-01-30T22:42:30;0.30;99.90
14095;DHT22;18096;48.142;16.290;2024-01-30T22:44:55;0.20;99.90
14095;DHT22;18096;48.142;16.290;2024-01-30T22:47:23;2.00;99.90
14095;DHT22;18096;48.142;16.290;2024-01-30T22:49:49;0.10;99.90
14095;DHT22;18096;48.142;16.290;2024-01-30T22:52:14;0.10;99.90
14095;DHT22;18096;48.142;16.290;2024-01-30T22:54:40;0.10;99.90
14095;DHT22;18096;48.142;16.290;2024-01-30T22:57:05;0.00;99.90
14095;DHT22;18096;48.142;16.290;2024-01-30T22:59:31;0.10;99.90
14095;DHT22;18096;48.142;16.290;2024-01-30T23:01:56;0.10;99.90
14095;DHT22;18096;48.142;16.290;2024-01-30T23:04:22;1.60;99.90
14095;DHT22;18096;48.142;16.290;2024-01-30T23:06:48;0.00;99.90
14095;DHT22;18096;48.142;16.290;2024-01-30T23:09:13;-0.10;99.90
14095;DHT22;18096;48.142;16.290;2024-01-30T23:11:42;0.40;99.90
14095;DHT22;18096;48.142;16.290;2024-01-30T23:14:08;-0.10;99.90
14095;DHT22;18096;48.142;16.290;2024-01-30T23:16:33;-0.10;99.90
14095;DHT22;18096;48.142;16.290;2024-01-30T23:18:59;3.10;99.90
14095;DHT22;18096;48.142;16.290;2024-01-30T23:21:25;-2.30;99.90
14095;DHT22;18096;48.142;16.290;2024-01-30T23:23:50;1.50;99.90
14095;DHT22;18096;48.142;16.290;2024-01-30T23:26:16;0.00;99.90
14095;DHT22;18096;48.142;16.290;2024-01-30T23:28:42;-0.10;99.90
14095;DHT22;18096;48.142;16.290;2024-01-30T23:31:08;0.60;99.90
14095;DHT22;18096;48.142;16.290;2024-01-30T23:33:33;-0.10;99.90
14095;DHT22;18096;48.142;16.290;2024-01-30T23:35:59;-3.00;99.90
14095;DHT22;18096;48.142;16.290;2024-01-30T23:38:25;1.40;99.90
14095;DHT22;18096;48.142;16.290;2024-01-30T23:40:51;-0.10;99.90
14095;DHT22;18096;48.142;16.290;2024-01-30T23:43:16;-1.10;99.90
14095;DHT22;18096;48.142;16.290;2024-01-30T23:45:43;0.10;99.90
14095;DHT22;18096;48.142;16.290;2024-01-30T23:48:09;-0.20;99.90
14095;DHT22;18096;48.142;16.290;2024-01-30T23:50:34;2.10;99.90
14095;DHT22;18096;48.142;16.290;2024-01-30T23:53:00;2.60;99.90
14095;DHT22;18096;48.142;16.290;2024-01-30T23:55:25;2.00;99.90
14095;DHT22;18096;48.142;16.290;2024-01-30T23:57:52;1.40;99.90
